PWSweather.com
Personal Weather Stations
Station Observations
BREEJEDURP
'sGravenzande, WestlandNL

'sGravenzandeWestlandNL

Lat: 52.00095260000001, Lon: 4.174256600000035

Elevation: 3

Station Type: Davis Vantage Pro2 Plus

www.breejedurp.nl

High Low Average
Temperature 43.9°F6.6°C 39.7°F4.3°C 41.3°F5.2°C
Dew Point 38.7°F3.7°C 33.7°F0.9°C 36.1°F2.3°C
Winds 16.0 mph 25.7 kmh 1.0 mph 1.6 kmh 9.0 mph W14.5 kmh W
Wind Gusts 29.0 mph46.7 kmh 3.0 mph4.8 kmh 14.0 mph22.5 kmh
Humidity 90% 74% 82%
Pressure 29.77 in1008.1 mb 29.59 in1002.0 mb -
Precipitation 0.03 in0.8 mm - -
Hour Temp Dew Point Humidity Winds Wind Gusts Pressure Precip Precip Rate Daily Precip Total
12:04 AM 41.2°F5.1°C 37.9°F3.3°C 88% 7.0 mph W11.3 kmh W 10.0 mph16.1 kmh 29.59 in1002.0 mb 0.00 in0.0 mm 0.00 in0.0 mm 0.00 in0.0 mm
12:09 AM 41.4°F5.2°C 38.1°F3.4°C 88% 8.0 mph W12.9 kmh W 11.0 mph17.7 kmh 29.59 in1002.0 mb 0.00 in0.0 mm 0.00 in0.0 mm 0.00 in0.0 mm
12:14 AM 41.4°F5.2°C 38.1°F3.4°C 88% 8.0 mph W12.9 kmh W 13.0 mph20.9 kmh 29.60 in1002.4 mb 0.00 in0.0 mm 0.00 in0.0 mm 0.00 in0.0 mm
12:19 AM 41.4°F5.2°C 38.4°F3.6°C 89% 9.0 mph WSW14.5 kmh WSW 14.0 mph22.5 kmh 29.59 in1002.0 mb 0.00 in0.0 mm 0.00 in0.0 mm 0.00 in0.0 mm
12:24 AM 41.4°F5.2°C 38.4°F3.6°C 89% 10.0 mph W16.1 kmh W 14.0 mph22.5 kmh 29.60 in1002.4 mb 0.00 in0.0 mm 0.00 in0.0 mm 0.00 in0.0 mm
12:29 AM 41.4°F5.2°C 38.4°F3.6°C 89% 9.0 mph W14.5 kmh W 14.0 mph22.5 kmh 29.60 in1002.4 mb 0.00 in0.0 mm 0.00 in0.0 mm 0.00 in0.0 mm
12:34 AM 41.4°F5.2°C 38.4°F3.6°C 89% 10.0 mph W16.1 kmh W 15.0 mph24.1 kmh 29.60 in1002.4 mb 0.00 in0.0 mm 0.00 in0.0 mm 0.00 in0.0 mm
12:39 AM 41.5°F5.3°C 38.5°F3.6°C 89% 9.0 mph W14.5 kmh W 12.0 mph19.3 kmh 29.60 in1002.4 mb 0.00 in0.0 mm 0.00 in0.0 mm 0.00 in0.0 mm
12:44 AM 41.5°F5.3°C 38.5°F3.6°C 89% 8.0 mph W12.9 kmh W 11.0 mph17.7 kmh 29.60 in1002.4 mb 0.00 in0.0 mm 0.00 in0.0 mm 0.00 in0.0 mm
12:49 AM 41.7°F5.4°C 38.7°F3.7°C 89% 10.0 mph NW16.1 kmh NW 15.0 mph24.1 kmh 29.61 in1002.7 mb 0.00 in0.0 mm 0.00 in0.0 mm 0.00 in0.0 mm
12:54 AM 40.8°F4.9°C 37.5°F3.1°C 88% 12.0 mph NW19.3 kmh NW 17.0 mph27.4 kmh 29.61 in1002.7 mb 0.00 in0.0 mm 0.00 in0.0 mm 0.00 in0.0 mm
12:59 AM 40.6°F4.8°C 37.7°F3.2°C 89% 7.0 mph WNW11.3 kmh WNW 10.0 mph16.1 kmh 29.61 in1002.7 mb 0.00 in0.0 mm 0.00 in0.0 mm 0.00 in0.0 mm
01:04 AM 40.6°F4.8°C 37.7°F3.2°C 89% 8.0 mph WNW12.9 kmh WNW 11.0 mph17.7 kmh 29.61 in1002.7 mb 0.00 in0.0 mm 0.00 in0.0 mm 0.00 in0.0 mm
01:09 AM 40.5°F4.7°C 37.8°F3.2°C 90% 6.0 mph NW9.7 kmh NW 8.0 mph12.9 kmh 29.61 in1002.7 mb 0.00 in0.0 mm 0.00 in0.0 mm 0.00 in0.0 mm
01:14 AM 40.5°F4.7°C 37.8°F3.2°C 90% 7.0 mph WNW11.3 kmh WNW 11.0 mph17.7 kmh 29.61 in1002.7 mb 0.00 in0.0 mm 0.00 in0.0 mm 0.00 in0.0 mm
01:19 AM 40.3°F4.6°C 37.6°F3.1°C 90% 8.0 mph NW12.9 kmh NW 12.0 mph19.3 kmh 29.62 in1003.0 mb 0.01 in0.3 mm 0.10 in2.5 mm 0.01 in0.3 mm
01:24 AM 40.3°F4.6°C 37.3°F2.9°C 89% 9.0 mph WNW14.5 kmh WNW 15.0 mph24.1 kmh 29.62 in1003.0 mb 0.00 in0.0 mm 0.00 in0.0 mm 0.02 in0.5 mm
01:29 AM 39.9°F4.4°C 36.9°F2.7°C 89% 9.0 mph W14.5 kmh W 13.0 mph20.9 kmh 29.61 in1002.7 mb 0.00 in0.0 mm 0.00 in0.0 mm 0.02 in0.5 mm
01:34 AM 40.1°F4.5°C 37.1°F2.8°C 89% 6.0 mph W9.7 kmh W 9.0 mph14.5 kmh 29.62 in1003.0 mb 0.00 in0.0 mm 0.00 in0.0 mm 0.02 in0.5 mm
01:39 AM 40.5°F4.7°C 37.8°F3.2°C 90% 9.0 mph W14.5 kmh W 13.0 mph20.9 kmh 29.62 in1003.0 mb 0.00 in0.0 mm 0.00 in0.0 mm 0.02 in0.5 mm
01:44 AM 40.6°F4.8°C 37.7°F3.2°C 89% 13.0 mph W20.9 kmh W 19.0 mph30.6 kmh 29.62 in1003.0 mb 0.01 in0.3 mm 0.10 in2.5 mm 0.02 in0.5 mm
01:49 AM 40.3°F4.6°C 37.3°F2.9°C 89% 12.0 mph NW19.3 kmh NW 19.0 mph30.6 kmh 29.62 in1003.0 mb 0.00 in0.0 mm 0.00 in0.0 mm 0.02 in0.5 mm
01:54 AM 40.1°F4.5°C 37.1°F2.8°C 89% 8.0 mph WNW12.9 kmh WNW 13.0 mph20.9 kmh 29.62 in1003.0 mb 0.00 in0.0 mm 0.00 in0.0 mm 0.02 in0.5 mm
01:59 AM 40.1°F4.5°C 37.1°F2.8°C 89% 9.0 mph NW14.5 kmh NW 12.0 mph19.3 kmh 29.62 in1003.0 mb 0.00 in0.0 mm 0.00 in0.0 mm 0.02 in0.5 mm
02:04 AM 40.3°F4.6°C 37.3°F2.9°C 89% 9.0 mph NW14.5 kmh NW 16.0 mph25.7 kmh 29.62 in1003.0 mb 0.00 in0.0 mm 0.00 in0.0 mm 0.02 in0.5 mm
02:09 AM 40.3°F4.6°C 37.3°F2.9°C 89% 8.0 mph W12.9 kmh W 11.0 mph17.7 kmh 29.62 in1003.0 mb 0.00 in0.0 mm 0.00 in0.0 mm 0.02 in0.5 mm
02:14 AM 40.3°F4.6°C 37.3°F2.9°C 89% 6.0 mph NW9.7 kmh NW 11.0 mph17.7 kmh 29.62 in1003.0 mb 0.00 in0.0 mm 0.00 in0.0 mm 0.02 in0.5 mm
02:19 AM 40.6°F4.8°C 37.7°F3.2°C 89% 9.0 mph WNW14.5 kmh WNW 12.0 mph19.3 kmh 29.62 in1003.0 mb 0.00 in0.0 mm 0.00 in0.0 mm 0.02 in0.5 mm
02:24 AM 41.2°F5.1°C 38.2°F3.4°C 89% 12.0 mph W19.3 kmh W 22.0 mph35.4 kmh 29.62 in1003.0 mb 0.00 in0.0 mm 0.00 in0.0 mm 0.02 in0.5 mm
02:29 AM 40.6°F4.8°C 37.4°F3.0°C 88% 11.0 mph W17.7 kmh W 16.0 mph25.7 kmh 29.63 in1003.4 mb 0.00 in0.0 mm 0.00 in0.0 mm 0.02 in0.5 mm
02:34 AM 40.6°F4.8°C 37.4°F3.0°C 88% 14.0 mph WNW22.5 kmh WNW 20.0 mph32.2 kmh 29.63 in1003.4 mb 0.00 in0.0 mm 0.00 in0.0 mm 0.02 in0.5 mm
02:39 AM 40.6°F4.8°C 37.4°F3.0°C 88% 10.0 mph WNW16.1 kmh WNW 14.0 mph22.5 kmh 29.63 in1003.4 mb 0.00 in0.0 mm 0.00 in0.0 mm 0.02 in0.5 mm
02:44 AM 40.5°F4.7°C 37.2°F2.9°C 88% 15.0 mph W24.1 kmh W 23.0 mph37.0 kmh 29.63 in1003.4 mb 0.00 in0.0 mm 0.00 in0.0 mm 0.02 in0.5 mm
02:49 AM 39.9°F4.4°C 36.7°F2.6°C 88% 11.0 mph WNW17.7 kmh WNW 17.0 mph27.4 kmh 29.64 in1003.7 mb 0.00 in0.0 mm 0.00 in0.0 mm 0.02 in0.5 mm
02:54 AM 39.9°F4.4°C 37.2°F2.9°C 90% 10.0 mph NW16.1 kmh NW 16.0 mph25.7 kmh 29.63 in1003.4 mb 0.00 in0.0 mm 0.00 in0.0 mm 0.03 in0.8 mm
02:59 AM 39.7°F4.3°C 36.8°F2.7°C 89% 9.0 mph NW14.5 kmh NW 13.0 mph20.9 kmh 29.63 in1003.4 mb 0.00 in0.0 mm 0.00 in0.0 mm 0.03 in0.8 mm
03:04 AM 39.9°F4.4°C 37.2°F2.9°C 90% 7.0 mph WNW11.3 kmh WNW 9.0 mph14.5 kmh 29.64 in1003.7 mb 0.00 in0.0 mm 0.00 in0.0 mm 0.03 in0.8 mm
03:09 AM 40.5°F4.7°C 37.8°F3.2°C 90% 13.0 mph W20.9 kmh W 17.0 mph27.4 kmh 29.63 in1003.4 mb 0.00 in0.0 mm 0.00 in0.0 mm 0.03 in0.8 mm
03:14 AM 40.8°F4.9°C 37.8°F3.2°C 89% 13.0 mph WNW20.9 kmh WNW 20.0 mph32.2 kmh 29.64 in1003.7 mb 0.00 in0.0 mm 0.00 in0.0 mm 0.03 in0.8 mm
03:19 AM 40.8°F4.9°C 37.5°F3.1°C 88% 14.0 mph WNW22.5 kmh WNW 21.0 mph33.8 kmh 29.64 in1003.7 mb 0.00 in0.0 mm 0.00 in0.0 mm 0.03 in0.8 mm
03:24 AM 40.6°F4.8°C 37.1°F2.8°C 87% 14.0 mph WNW22.5 kmh WNW 19.0 mph30.6 kmh 29.64 in1003.7 mb 0.00 in0.0 mm 0.00 in0.0 mm 0.03 in0.8 mm
03:29 AM 40.6°F4.8°C 37.1°F2.8°C 87% 16.0 mph W25.7 kmh W 22.0 mph35.4 kmh 29.65 in1004.1 mb 0.00 in0.0 mm 0.00 in0.0 mm 0.03 in0.8 mm
03:34 AM 40.3°F4.6°C 36.7°F2.6°C 87% 15.0 mph WNW24.1 kmh WNW 24.0 mph38.6 kmh 29.65 in1004.1 mb 0.00 in0.0 mm 0.00 in0.0 mm 0.03 in0.8 mm
03:39 AM 39.9°F4.4°C 36.4°F2.4°C 87% 14.0 mph W22.5 kmh W 19.0 mph30.6 kmh 29.65 in1004.1 mb 0.00 in0.0 mm 0.00 in0.0 mm 0.03 in0.8 mm
03:44 AM 40.3°F4.6°C 37.0°F2.8°C 88% 14.0 mph WNW22.5 kmh WNW 19.0 mph30.6 kmh 29.65 in1004.1 mb 0.00 in0.0 mm 0.00 in0.0 mm 0.03 in0.8 mm
03:49 AM 40.6°F4.8°C 37.4°F3.0°C 88% 11.0 mph NW17.7 kmh NW 16.0 mph25.7 kmh 29.65 in1004.1 mb 0.00 in0.0 mm 0.00 in0.0 mm 0.03 in0.8 mm
03:54 AM 40.8°F4.9°C 37.5°F3.1°C 88% 13.0 mph WNW20.9 kmh WNW 17.0 mph27.4 kmh 29.65 in1004.1 mb 0.00 in0.0 mm 0.00 in0.0 mm 0.03 in0.8 mm
03:59 AM 40.8°F4.9°C 37.3°F2.9°C 87% 12.0 mph WNW19.3 kmh WNW 20.0 mph32.2 kmh 29.65 in1004.1 mb 0.00 in0.0 mm 0.00 in0.0 mm 0.03 in0.8 mm
04:04 AM 40.6°F4.8°C 37.1°F2.8°C 87% 11.0 mph WNW17.7 kmh WNW 15.0 mph24.1 kmh 29.66 in1004.4 mb 0.00 in0.0 mm 0.00 in0.0 mm 0.03 in0.8 mm
04:09 AM 40.8°F4.9°C 37.3°F2.9°C 87% 11.0 mph WNW17.7 kmh WNW 15.0 mph24.1 kmh 29.66 in1004.4 mb 0.00 in0.0 mm 0.00 in0.0 mm 0.03 in0.8 mm
04:14 AM 40.8°F4.9°C 37.3°F2.9°C 87% 9.0 mph WNW14.5 kmh WNW 14.0 mph22.5 kmh 29.66 in1004.4 mb 0.00 in0.0 mm 0.00 in0.0 mm 0.03 in0.8 mm
04:19 AM 40.6°F4.8°C 37.1°F2.8°C 87% 12.0 mph W19.3 kmh W 17.0 mph27.4 kmh 29.66 in1004.4 mb 0.00 in0.0 mm 0.00 in0.0 mm 0.03 in0.8 mm
04:24 AM 40.6°F4.8°C 37.1°F2.8°C 87% 13.0 mph WNW20.9 kmh WNW 19.0 mph30.6 kmh 29.66 in1004.4 mb 0.00 in0.0 mm 0.00 in0.0 mm 0.03 in0.8 mm
04:29 AM 40.6°F4.8°C 36.8°F2.7°C 86% 11.0 mph W17.7 kmh W 17.0 mph27.4 kmh 29.66 in1004.4 mb 0.00 in0.0 mm 0.00 in0.0 mm 0.03 in0.8 mm
04:34 AM 40.8°F4.9°C 37.0°F2.8°C 86% 11.0 mph WNW17.7 kmh WNW 18.0 mph29.0 kmh 29.66 in1004.4 mb 0.00 in0.0 mm 0.00 in0.0 mm 0.03 in0.8 mm
04:39 AM 40.8°F4.9°C 37.3°F2.9°C 87% 11.0 mph NW17.7 kmh NW 16.0 mph25.7 kmh 29.66 in1004.4 mb 0.00 in0.0 mm 0.00 in0.0 mm 0.03 in0.8 mm
04:44 AM 40.8°F4.9°C 37.0°F2.8°C 86% 13.0 mph WNW20.9 kmh WNW 17.0 mph27.4 kmh 29.67 in1004.7 mb 0.00 in0.0 mm 0.00 in0.0 mm 0.03 in0.8 mm
04:49 AM 40.8°F4.9°C 36.7°F2.6°C 85% 9.0 mph W14.5 kmh W 12.0 mph19.3 kmh 29.67 in1004.7 mb 0.00 in0.0 mm 0.00 in0.0 mm 0.03 in0.8 mm
04:54 AM 41.0°F5.0°C 36.8°F2.7°C 85% 10.0 mph WNW16.1 kmh WNW 15.0 mph24.1 kmh 29.67 in1004.7 mb 0.00 in0.0 mm 0.00 in0.0 mm 0.03 in0.8 mm
04:59 AM 41.0°F5.0°C 37.1°F2.8°C 86% 11.0 mph W17.7 kmh W 13.0 mph20.9 kmh 29.67 in1004.7 mb 0.00 in0.0 mm 0.00 in0.0 mm 0.03 in0.8 mm
05:04 AM 41.2°F5.1°C 37.3°F2.9°C 86% 12.0 mph WNW19.3 kmh WNW 16.0 mph25.7 kmh 29.67 in1004.7 mb 0.00 in0.0 mm 0.00 in0.0 mm 0.03 in0.8 mm
05:09 AM 41.0°F5.0°C 37.1°F2.8°C 86% 10.0 mph NW16.1 kmh NW 16.0 mph25.7 kmh 29.67 in1004.7 mb 0.00 in0.0 mm 0.00 in0.0 mm 0.03 in0.8 mm
05:14 AM 40.8°F4.9°C 37.0°F2.8°C 86% 9.0 mph WNW14.5 kmh WNW 13.0 mph20.9 kmh 29.67 in1004.7 mb 0.00 in0.0 mm 0.00 in0.0 mm 0.03 in0.8 mm
05:19 AM 41.0°F5.0°C 36.8°F2.7°C 85% 12.0 mph WNW19.3 kmh WNW 18.0 mph29.0 kmh 29.67 in1004.7 mb 0.00 in0.0 mm 0.00 in0.0 mm 0.03 in0.8 mm
05:24 AM 41.2°F5.1°C 37.3°F2.9°C 86% 12.0 mph W19.3 kmh W 17.0 mph27.4 kmh 29.67 in1004.7 mb 0.00 in0.0 mm 0.00 in0.0 mm 0.03 in0.8 mm
05:29 AM 41.0°F5.0°C 36.5°F2.5°C 84% 15.0 mph WNW24.1 kmh WNW 20.0 mph32.2 kmh 29.67 in1004.7 mb 0.00 in0.0 mm 0.00 in0.0 mm 0.03 in0.8 mm
05:34 AM 41.0°F5.0°C 36.2°F2.3°C 83% 13.0 mph W20.9 kmh W 17.0 mph27.4 kmh 29.68 in1005.1 mb 0.00 in0.0 mm 0.00 in0.0 mm 0.03 in0.8 mm
05:39 AM 41.0°F5.0°C 36.5°F2.5°C 84% 10.0 mph WNW16.1 kmh WNW 14.0 mph22.5 kmh 29.68 in1005.1 mb 0.00 in0.0 mm 0.00 in0.0 mm 0.03 in0.8 mm
05:44 AM 41.0°F5.0°C 36.5°F2.5°C 84% 13.0 mph WNW20.9 kmh WNW 18.0 mph29.0 kmh 29.68 in1005.1 mb 0.00 in0.0 mm 0.00 in0.0 mm 0.03 in0.8 mm
05:49 AM 40.8°F4.9°C 36.1°F2.3°C 83% 13.0 mph WNW20.9 kmh WNW 19.0 mph30.6 kmh 29.68 in1005.1 mb 0.00 in0.0 mm 0.00 in0.0 mm 0.03 in0.8 mm
05:54 AM 40.8°F4.9°C 36.4°F2.4°C 84% 11.0 mph W17.7 kmh W 16.0 mph25.7 kmh 29.68 in1005.1 mb 0.00 in0.0 mm 0.00 in0.0 mm 0.03 in0.8 mm
05:59 AM 40.8°F4.9°C 36.4°F2.4°C 84% 11.0 mph W17.7 kmh W 17.0 mph27.4 kmh 29.69 in1005.4 mb 0.00 in0.0 mm 0.00 in0.0 mm 0.03 in0.8 mm
06:04 AM 40.8°F4.9°C 36.7°F2.6°C 85% 13.0 mph W20.9 kmh W 18.0 mph29.0 kmh 29.69 in1005.4 mb 0.00 in0.0 mm 0.00 in0.0 mm 0.03 in0.8 mm
06:09 AM 40.8°F4.9°C 36.7°F2.6°C 85% 10.0 mph W16.1 kmh W 14.0 mph22.5 kmh 29.69 in1005.4 mb 0.00 in0.0 mm 0.00 in0.0 mm 0.03 in0.8 mm
06:14 AM 40.8°F4.9°C 36.7°F2.6°C 85% 10.0 mph WNW16.1 kmh WNW 13.0 mph20.9 kmh 29.69 in1005.4 mb 0.00 in0.0 mm 0.00 in0.0 mm 0.03 in0.8 mm
06:19 AM 40.6°F4.8°C 36.2°F2.3°C 84% 10.0 mph W16.1 kmh W 17.0 mph27.4 kmh 29.69 in1005.4 mb 0.00 in0.0 mm 0.00 in0.0 mm 0.03 in0.8 mm
06:24 AM 40.6°F4.8°C 36.2°F2.3°C 84% 11.0 mph W17.7 kmh W 17.0 mph27.4 kmh 29.69 in1005.4 mb 0.00 in0.0 mm 0.00 in0.0 mm 0.03 in0.8 mm
06:29 AM 40.6°F4.8°C 36.5°F2.5°C 85% 9.0 mph WNW14.5 kmh WNW 12.0 mph19.3 kmh 29.69 in1005.4 mb 0.00 in0.0 mm 0.00 in0.0 mm 0.03 in0.8 mm
06:34 AM 40.6°F4.8°C 36.2°F2.3°C 84% 13.0 mph WNW20.9 kmh WNW 21.0 mph33.8 kmh 29.70 in1005.8 mb 0.00 in0.0 mm 0.00 in0.0 mm 0.03 in0.8 mm
06:39 AM 40.6°F4.8°C 36.2°F2.3°C 84% 9.0 mph W14.5 kmh W 14.0 mph22.5 kmh 29.70 in1005.8 mb 0.00 in0.0 mm 0.00 in0.0 mm 0.03 in0.8 mm
06:44 AM 40.8°F4.9°C 36.7°F2.6°C 85% 15.0 mph W24.1 kmh W 19.0 mph30.6 kmh 29.70 in1005.8 mb 0.00 in0.0 mm 0.00 in0.0 mm 0.03 in0.8 mm
06:49 AM 40.8°F4.9°C 36.4°F2.4°C 84% 16.0 mph W25.7 kmh W 25.0 mph40.2 kmh 29.70 in1005.8 mb 0.00 in0.0 mm 0.00 in0.0 mm 0.03 in0.8 mm
06:54 AM 40.8°F4.9°C 36.4°F2.4°C 84% 15.0 mph W24.1 kmh W 19.0 mph30.6 kmh 29.70 in1005.8 mb 0.00 in0.0 mm 0.00 in0.0 mm 0.03 in0.8 mm
06:59 AM 40.6°F4.8°C 36.2°F2.3°C 84% 10.0 mph W16.1 kmh W 16.0 mph25.7 kmh 29.70 in1005.8 mb 0.00 in0.0 mm 0.00 in0.0 mm 0.03 in0.8 mm
07:04 AM 40.6°F4.8°C 36.2°F2.3°C 84% 13.0 mph W20.9 kmh W 25.0 mph40.2 kmh 29.70 in1005.8 mb 0.00 in0.0 mm 0.00 in0.0 mm 0.03 in0.8 mm
07:09 AM 40.6°F4.8°C 36.2°F2.3°C 84% 13.0 mph WNW20.9 kmh WNW 17.0 mph27.4 kmh 29.70 in1005.8 mb 0.00 in0.0 mm 0.00 in0.0 mm 0.03 in0.8 mm
07:14 AM 40.6°F4.8°C 36.2°F2.3°C 84% 11.0 mph W17.7 kmh W 18.0 mph29.0 kmh 29.71 in1006.1 mb 0.00 in0.0 mm 0.00 in0.0 mm 0.03 in0.8 mm
07:19 AM 40.8°F4.9°C 36.4°F2.4°C 84% 13.0 mph WNW20.9 kmh WNW 18.0 mph29.0 kmh 29.71 in1006.1 mb 0.00 in0.0 mm 0.00 in0.0 mm 0.03 in0.8 mm
07:24 AM 40.8°F4.9°C 36.4°F2.4°C 84% 11.0 mph W17.7 kmh W 19.0 mph30.6 kmh 29.71 in1006.1 mb 0.00 in0.0 mm 0.00 in0.0 mm 0.03 in0.8 mm
07:29 AM 40.8°F4.9°C 36.4°F2.4°C 84% 13.0 mph W20.9 kmh W 17.0 mph27.4 kmh 29.70 in1005.8 mb 0.00 in0.0 mm 0.00 in0.0 mm 0.03 in0.8 mm
07:34 AM 40.8°F4.9°C 36.4°F2.4°C 84% 13.0 mph W20.9 kmh W 18.0 mph29.0 kmh 29.71 in1006.1 mb 0.00 in0.0 mm 0.00 in0.0 mm 0.03 in0.8 mm
07:39 AM 40.8°F4.9°C 36.4°F2.4°C 84% 12.0 mph W19.3 kmh W 16.0 mph25.7 kmh 29.71 in1006.1 mb 0.00 in0.0 mm 0.00 in0.0 mm 0.03 in0.8 mm
07:44 AM 40.6°F4.8°C 36.2°F2.3°C 84% 15.0 mph W24.1 kmh W 20.0 mph32.2 kmh 29.71 in1006.1 mb 0.00 in0.0 mm 0.00 in0.0 mm 0.03 in0.8 mm
07:49 AM 40.6°F4.8°C 36.2°F2.3°C 84% 12.0 mph W19.3 kmh W 15.0 mph24.1 kmh 29.71 in1006.1 mb 0.00 in0.0 mm 0.00 in0.0 mm 0.03 in0.8 mm
07:54 AM 40.6°F4.8°C 35.9°F2.2°C 83% 12.0 mph W19.3 kmh W 14.0 mph22.5 kmh 29.71 in1006.1 mb 0.00 in0.0 mm 0.00 in0.0 mm 0.03 in0.8 mm
07:59 AM 40.6°F4.8°C 36.2°F2.3°C 84% 12.0 mph W19.3 kmh W 18.0 mph29.0 kmh 29.71 in1006.1 mb 0.00 in0.0 mm 0.00 in0.0 mm 0.03 in0.8 mm
08:04 AM 40.6°F4.8°C 36.2°F2.3°C 84% 12.0 mph W19.3 kmh W 16.0 mph25.7 kmh 29.72 in1006.4 mb 0.00 in0.0 mm 0.00 in0.0 mm 0.03 in0.8 mm
08:09 AM 40.5°F4.7°C 36.0°F2.2°C 84% 9.0 mph W14.5 kmh W 12.0 mph19.3 kmh 29.71 in1006.1 mb 0.00 in0.0 mm 0.00 in0.0 mm 0.03 in0.8 mm
08:14 AM 40.6°F4.8°C 36.2°F2.3°C 84% 13.0 mph WSW20.9 kmh WSW 20.0 mph32.2 kmh 29.71 in1006.1 mb 0.00 in0.0 mm 0.00 in0.0 mm 0.03 in0.8 mm
08:19 AM 40.6°F4.8°C 36.2°F2.3°C 84% 8.0 mph W12.9 kmh W 14.0 mph22.5 kmh 29.72 in1006.4 mb 0.00 in0.0 mm 0.00 in0.0 mm 0.03 in0.8 mm
08:24 AM 40.6°F4.8°C 36.5°F2.5°C 85% 11.0 mph W17.7 kmh W 19.0 mph30.6 kmh 29.72 in1006.4 mb 0.00 in0.0 mm 0.00 in0.0 mm 0.03 in0.8 mm
08:29 AM 40.6°F4.8°C 36.5°F2.5°C 85% 8.0 mph W12.9 kmh W 15.0 mph24.1 kmh 29.72 in1006.4 mb 0.00 in0.0 mm 0.00 in0.0 mm 0.03 in0.8 mm
08:34 AM 40.5°F4.7°C 36.3°F2.4°C 85% 13.0 mph W20.9 kmh W 18.0 mph29.0 kmh 29.72 in1006.4 mb 0.00 in0.0 mm 0.00 in0.0 mm 0.03 in0.8 mm
08:39 AM 40.5°F4.7°C 36.3°F2.4°C 85% 12.0 mph W19.3 kmh W 19.0 mph30.6 kmh 29.72 in1006.4 mb 0.00 in0.0 mm 0.00 in0.0 mm 0.03 in0.8 mm
08:44 AM 40.5°F4.7°C 36.0°F2.2°C 84% 15.0 mph W24.1 kmh W 22.0 mph35.4 kmh 29.72 in1006.4 mb 0.00 in0.0 mm 0.00 in0.0 mm 0.03 in0.8 mm
08:49 AM 40.5°F4.7°C 36.0°F2.2°C 84% 9.0 mph W14.5 kmh W 13.0 mph20.9 kmh 29.72 in1006.4 mb 0.00 in0.0 mm 0.00 in0.0 mm 0.03 in0.8 mm
08:54 AM 40.5°F4.7°C 36.3°F2.4°C 85% 10.0 mph W16.1 kmh W 15.0 mph24.1 kmh 29.73 in1006.8 mb 0.00 in0.0 mm 0.00 in0.0 mm 0.03 in0.8 mm
08:59 AM 40.5°F4.7°C 36.3°F2.4°C 85% 10.0 mph W16.1 kmh W 15.0 mph24.1 kmh 29.73 in1006.8 mb 0.00 in0.0 mm 0.00 in0.0 mm 0.03 in0.8 mm
09:04 AM 40.5°F4.7°C 36.3°F2.4°C 85% 10.0 mph W16.1 kmh W 15.0 mph24.1 kmh 29.73 in1006.8 mb 0.00 in0.0 mm 0.00 in0.0 mm 0.03 in0.8 mm
09:09 AM 40.6°F4.8°C 36.5°F2.5°C 85% 10.0 mph W16.1 kmh W 15.0 mph24.1 kmh 29.73 in1006.8 mb 0.00 in0.0 mm 0.00 in0.0 mm 0.03 in0.8 mm
09:14 AM 40.5°F4.7°C 36.3°F2.4°C 85% 9.0 mph W14.5 kmh W 16.0 mph25.7 kmh 29.73 in1006.8 mb 0.00 in0.0 mm 0.00 in0.0 mm 0.03 in0.8 mm
09:19 AM 40.6°F4.8°C 36.2°F2.3°C 84% 11.0 mph W17.7 kmh W 15.0 mph24.1 kmh 29.74 in1007.1 mb 0.00 in0.0 mm 0.00 in0.0 mm 0.03 in0.8 mm
09:24 AM 40.6°F4.8°C 36.2°F2.3°C 84% 9.0 mph W14.5 kmh W 14.0 mph22.5 kmh 29.74 in1007.1 mb 0.00 in0.0 mm 0.00 in0.0 mm 0.03 in0.8 mm
09:29 AM 40.6°F4.8°C 36.2°F2.3°C 84% 9.0 mph W14.5 kmh W 13.0 mph20.9 kmh 29.74 in1007.1 mb 0.00 in0.0 mm 0.00 in0.0 mm 0.03 in0.8 mm
09:34 AM 40.5°F4.7°C 36.0°F2.2°C 84% 11.0 mph W17.7 kmh W 16.0 mph25.7 kmh 29.74 in1007.1 mb 0.00 in0.0 mm 0.00 in0.0 mm 0.03 in0.8 mm
09:39 AM 40.6°F4.8°C 36.2°F2.3°C 84% 6.0 mph W9.7 kmh W 13.0 mph20.9 kmh 29.74 in1007.1 mb 0.00 in0.0 mm 0.00 in0.0 mm 0.03 in0.8 mm
09:44 AM 40.6°F4.8°C 36.2°F2.3°C 84% 10.0 mph W16.1 kmh W 14.0 mph22.5 kmh 29.75 in1007.5 mb 0.00 in0.0 mm 0.00 in0.0 mm 0.03 in0.8 mm
09:49 AM 40.6°F4.8°C 36.2°F2.3°C 84% 9.0 mph W14.5 kmh W 15.0 mph24.1 kmh 29.75 in1007.5 mb 0.00 in0.0 mm 0.00 in0.0 mm 0.03 in0.8 mm
09:54 AM 40.8°F4.9°C 36.4°F2.4°C 84% 12.0 mph W19.3 kmh W 16.0 mph25.7 kmh 29.75 in1007.5 mb 0.00 in0.0 mm 0.00 in0.0 mm 0.03 in0.8 mm
09:59 AM 40.8°F4.9°C 36.4°F2.4°C 84% 10.0 mph W16.1 kmh W 14.0 mph22.5 kmh 29.75 in1007.5 mb 0.00 in0.0 mm 0.00 in0.0 mm 0.03 in0.8 mm
10:04 AM 41.2°F5.1°C 36.7°F2.6°C 84% 10.0 mph W16.1 kmh W 16.0 mph25.7 kmh 29.75 in1007.5 mb 0.00 in0.0 mm 0.00 in0.0 mm 0.03 in0.8 mm
10:09 AM 41.2°F5.1°C 37.0°F2.8°C 85% 9.0 mph W14.5 kmh W 13.0 mph20.9 kmh 29.75 in1007.5 mb 0.00 in0.0 mm 0.00 in0.0 mm 0.03 in0.8 mm
10:14 AM 41.2°F5.1°C 36.7°F2.6°C 84% 9.0 mph W14.5 kmh W 12.0 mph19.3 kmh 29.76 in1007.8 mb 0.00 in0.0 mm 0.00 in0.0 mm 0.03 in0.8 mm
10:19 AM 41.2°F5.1°C 36.7°F2.6°C 84% 7.0 mph W11.3 kmh W 11.0 mph17.7 kmh 29.76 in1007.8 mb 0.00 in0.0 mm 0.00 in0.0 mm 0.03 in0.8 mm
10:24 AM 41.4°F5.2°C 36.9°F2.7°C 84% 9.0 mph W14.5 kmh W 13.0 mph20.9 kmh 29.76 in1007.8 mb 0.00 in0.0 mm 0.00 in0.0 mm 0.03 in0.8 mm
10:29 AM 41.4°F5.2°C 36.9°F2.7°C 84% 9.0 mph WSW14.5 kmh WSW 12.0 mph19.3 kmh 29.76 in1007.8 mb 0.00 in0.0 mm 0.00 in0.0 mm 0.03 in0.8 mm
10:34 AM 41.4°F5.2°C 36.9°F2.7°C 84% 7.0 mph W11.3 kmh W 10.0 mph16.1 kmh 29.76 in1007.8 mb 0.00 in0.0 mm 0.00 in0.0 mm 0.03 in0.8 mm
10:39 AM 41.4°F5.2°C 36.9°F2.7°C 84% 9.0 mph W14.5 kmh W 14.0 mph22.5 kmh 29.76 in1007.8 mb 0.00 in0.0 mm 0.00 in0.0 mm 0.03 in0.8 mm
10:44 AM 41.5°F5.3°C 37.1°F2.8°C 84% 10.0 mph W16.1 kmh W 15.0 mph24.1 kmh 29.76 in1007.8 mb 0.00 in0.0 mm 0.00 in0.0 mm 0.03 in0.8 mm
10:49 AM 41.5°F5.3°C 36.8°F2.7°C 83% 11.0 mph WSW17.7 kmh WSW 17.0 mph27.4 kmh 29.76 in1007.8 mb 0.00 in0.0 mm 0.00 in0.0 mm 0.03 in0.8 mm
10:54 AM 41.5°F5.3°C 36.8°F2.7°C 83% 10.0 mph WNW16.1 kmh WNW 13.0 mph20.9 kmh 29.76 in1007.8 mb 0.00 in0.0 mm 0.00 in0.0 mm 0.03 in0.8 mm
10:59 AM 41.4°F5.2°C 36.6°F2.6°C 83% 11.0 mph W17.7 kmh W 17.0 mph27.4 kmh 29.76 in1007.8 mb 0.00 in0.0 mm 0.00 in0.0 mm 0.03 in0.8 mm
11:04 AM 41.4°F5.2°C 36.6°F2.6°C 83% 9.0 mph W14.5 kmh W 15.0 mph24.1 kmh 29.76 in1007.8 mb 0.00 in0.0 mm 0.00 in0.0 mm 0.03 in0.8 mm
11:09 AM 41.4°F5.2°C 36.6°F2.6°C 83% 9.0 mph W14.5 kmh W 12.0 mph19.3 kmh 29.77 in1008.1 mb 0.00 in0.0 mm 0.00 in0.0 mm 0.03 in0.8 mm
11:14 AM 41.5°F5.3°C 37.1°F2.8°C 84% 10.0 mph W16.1 kmh W 14.0 mph22.5 kmh 29.77 in1008.1 mb 0.00 in0.0 mm 0.00 in0.0 mm 0.03 in0.8 mm
11:19 AM 41.9°F5.5°C 37.1°F2.8°C 83% 7.0 mph W11.3 kmh W 10.0 mph16.1 kmh 29.77 in1008.1 mb 0.00 in0.0 mm 0.00 in0.0 mm 0.03 in0.8 mm
11:24 AM 42.1°F5.6°C 37.0°F2.8°C 82% 8.0 mph W12.9 kmh W 11.0 mph17.7 kmh 29.76 in1007.8 mb 0.00 in0.0 mm 0.00 in0.0 mm 0.03 in0.8 mm
11:29 AM 41.5°F5.3°C 36.5°F2.5°C 82% 10.0 mph WSW16.1 kmh WSW 14.0 mph22.5 kmh 29.76 in1007.8 mb 0.00 in0.0 mm 0.00 in0.0 mm 0.03 in0.8 mm
11:34 AM 41.7°F5.4°C 36.6°F2.6°C 82% 11.0 mph W17.7 kmh W 15.0 mph24.1 kmh 29.76 in1007.8 mb 0.00 in0.0 mm 0.00 in0.0 mm 0.03 in0.8 mm
11:39 AM 41.9°F5.5°C 36.8°F2.7°C 82% 8.0 mph W12.9 kmh W 11.0 mph17.7 kmh 29.76 in1007.8 mb 0.00 in0.0 mm 0.00 in0.0 mm 0.03 in0.8 mm
11:44 AM 42.1°F5.6°C 36.7°F2.6°C 81% 10.0 mph W16.1 kmh W 17.0 mph27.4 kmh 29.76 in1007.8 mb 0.00 in0.0 mm 0.00 in0.0 mm 0.03 in0.8 mm
11:49 AM 42.1°F5.6°C 36.7°F2.6°C 81% 8.0 mph W12.9 kmh W 13.0 mph20.9 kmh 29.76 in1007.8 mb 0.00 in0.0 mm 0.00 in0.0 mm 0.03 in0.8 mm
11:54 AM 42.3°F5.7°C 36.9°F2.7°C 81% 10.0 mph W16.1 kmh W 13.0 mph20.9 kmh 29.76 in1007.8 mb 0.00 in0.0 mm 0.00 in0.0 mm 0.03 in0.8 mm
11:59 AM 42.1°F5.6°C 36.7°F2.6°C 81% 8.0 mph W12.9 kmh W 11.0 mph17.7 kmh 29.76 in1007.8 mb 0.00 in0.0 mm 0.00 in0.0 mm 0.03 in0.8 mm
12:04 PM 42.1°F5.6°C 36.4°F2.4°C 80% 6.0 mph W9.7 kmh W 8.0 mph12.9 kmh 29.76 in1007.8 mb 0.00 in0.0 mm 0.00 in0.0 mm 0.03 in0.8 mm
12:09 PM 42.4°F5.8°C 37.0°F2.8°C 81% 10.0 mph WSW16.1 kmh WSW 14.0 mph22.5 kmh 29.76 in1007.8 mb 0.00 in0.0 mm 0.00 in0.0 mm 0.03 in0.8 mm
12:14 PM 42.3°F5.7°C 36.5°F2.5°C 80% 8.0 mph WSW12.9 kmh WSW 12.0 mph19.3 kmh 29.76 in1007.8 mb 0.00 in0.0 mm 0.00 in0.0 mm 0.03 in0.8 mm
12:19 PM 42.1°F5.6°C 36.4°F2.4°C 80% 9.0 mph W14.5 kmh W 14.0 mph22.5 kmh 29.76 in1007.8 mb 0.00 in0.0 mm 0.00 in0.0 mm 0.03 in0.8 mm
12:24 PM 42.4°F5.8°C 37.0°F2.8°C 81% 9.0 mph W14.5 kmh W 12.0 mph19.3 kmh 29.76 in1007.8 mb 0.00 in0.0 mm 0.00 in0.0 mm 0.03 in0.8 mm
12:29 PM 42.8°F6.0°C 37.1°F2.8°C 80% 10.0 mph W16.1 kmh W 13.0 mph20.9 kmh 29.76 in1007.8 mb 0.00 in0.0 mm 0.00 in0.0 mm 0.03 in0.8 mm
12:34 PM 43.0°F6.1°C 37.2°F2.9°C 80% 11.0 mph W17.7 kmh W 15.0 mph24.1 kmh 29.76 in1007.8 mb 0.00 in0.0 mm 0.00 in0.0 mm 0.03 in0.8 mm
12:39 PM 42.8°F6.0°C 36.8°F2.7°C 79% 11.0 mph W17.7 kmh W 16.0 mph25.7 kmh 29.76 in1007.8 mb 0.00 in0.0 mm 0.00 in0.0 mm 0.03 in0.8 mm
12:44 PM 42.4°F5.8°C 36.7°F2.6°C 80% 11.0 mph WSW17.7 kmh WSW 15.0 mph24.1 kmh 29.76 in1007.8 mb 0.00 in0.0 mm 0.00 in0.0 mm 0.03 in0.8 mm
12:49 PM 42.3°F5.7°C 36.9°F2.7°C 81% 11.0 mph W17.7 kmh W 14.0 mph22.5 kmh 29.76 in1007.8 mb 0.00 in0.0 mm 0.00 in0.0 mm 0.03 in0.8 mm
12:54 PM 42.1°F5.6°C 36.4°F2.4°C 80% 13.0 mph WSW20.9 kmh WSW 20.0 mph32.2 kmh 29.76 in1007.8 mb 0.00 in0.0 mm 0.00 in0.0 mm 0.03 in0.8 mm
12:59 PM 42.1°F5.6°C 36.1°F2.3°C 79% 10.0 mph W16.1 kmh W 13.0 mph20.9 kmh 29.77 in1008.1 mb 0.00 in0.0 mm 0.00 in0.0 mm 0.03 in0.8 mm
01:04 PM 42.4°F5.8°C 36.7°F2.6°C 80% 13.0 mph WSW20.9 kmh WSW 17.0 mph27.4 kmh 29.76 in1007.8 mb 0.00 in0.0 mm 0.00 in0.0 mm 0.03 in0.8 mm
01:09 PM 42.6°F5.9°C 36.3°F2.4°C 78% 11.0 mph W17.7 kmh W 14.0 mph22.5 kmh 29.76 in1007.8 mb 0.00 in0.0 mm 0.00 in0.0 mm 0.03 in0.8 mm
01:14 PM 42.4°F5.8°C 36.1°F2.3°C 78% 12.0 mph W19.3 kmh W 19.0 mph30.6 kmh 29.76 in1007.8 mb 0.00 in0.0 mm 0.00 in0.0 mm 0.03 in0.8 mm
01:19 PM 42.3°F5.7°C 35.9°F2.2°C 78% 9.0 mph W14.5 kmh W 12.0 mph19.3 kmh 29.76 in1007.8 mb 0.00 in0.0 mm 0.00 in0.0 mm 0.03 in0.8 mm
01:24 PM 42.3°F5.7°C 35.9°F2.2°C 78% 10.0 mph WSW16.1 kmh WSW 13.0 mph20.9 kmh 29.76 in1007.8 mb 0.00 in0.0 mm 0.00 in0.0 mm 0.03 in0.8 mm
01:29 PM 42.4°F5.8°C 36.4°F2.4°C 79% 10.0 mph WSW16.1 kmh WSW 15.0 mph24.1 kmh 29.76 in1007.8 mb 0.00 in0.0 mm 0.00 in0.0 mm 0.03 in0.8 mm
01:34 PM 42.4°F5.8°C 36.4°F2.4°C 79% 12.0 mph WSW19.3 kmh WSW 14.0 mph22.5 kmh 29.76 in1007.8 mb 0.00 in0.0 mm 0.00 in0.0 mm 0.03 in0.8 mm
01:39 PM 42.6°F5.9°C 36.3°F2.4°C 78% 10.0 mph W16.1 kmh W 18.0 mph29.0 kmh 29.76 in1007.8 mb 0.00 in0.0 mm 0.00 in0.0 mm 0.03 in0.8 mm
01:44 PM 42.6°F5.9°C 36.3°F2.4°C 78% 4.0 mph WSW6.4 kmh WSW 10.0 mph16.1 kmh 29.76 in1007.8 mb 0.00 in0.0 mm 0.00 in0.0 mm 0.03 in0.8 mm
01:49 PM 43.0°F6.1°C 36.6°F2.6°C 78% 12.0 mph W19.3 kmh W 16.0 mph25.7 kmh 29.76 in1007.8 mb 0.00 in0.0 mm 0.00 in0.0 mm 0.03 in0.8 mm
01:54 PM 42.8°F6.0°C 36.1°F2.3°C 77% 9.0 mph SW14.5 kmh SW 13.0 mph20.9 kmh 29.76 in1007.8 mb 0.00 in0.0 mm 0.00 in0.0 mm 0.03 in0.8 mm
01:59 PM 43.0°F6.1°C 36.3°F2.4°C 77% 8.0 mph SW12.9 kmh SW 12.0 mph19.3 kmh 29.76 in1007.8 mb 0.00 in0.0 mm 0.00 in0.0 mm 0.03 in0.8 mm
02:04 PM 43.3°F6.3°C 36.3°F2.4°C 76% 13.0 mph W20.9 kmh W 17.0 mph27.4 kmh 29.76 in1007.8 mb 0.00 in0.0 mm 0.00 in0.0 mm 0.03 in0.8 mm
02:09 PM 43.9°F6.6°C 37.2°F2.9°C 77% 9.0 mph WSW14.5 kmh WSW 16.0 mph25.7 kmh 29.76 in1007.8 mb 0.00 in0.0 mm 0.00 in0.0 mm 0.03 in0.8 mm
02:14 PM 43.5°F6.4°C 36.1°F2.3°C 75% 6.0 mph SW9.7 kmh SW 12.0 mph19.3 kmh 29.76 in1007.8 mb 0.00 in0.0 mm 0.00 in0.0 mm 0.03 in0.8 mm
02:19 PM 43.5°F6.4°C 36.5°F2.5°C 76% 9.0 mph W14.5 kmh W 14.0 mph22.5 kmh 29.76 in1007.8 mb 0.00 in0.0 mm 0.00 in0.0 mm 0.03 in0.8 mm
02:24 PM 43.3°F6.3°C 35.6°F2.0°C 74% 12.0 mph WSW19.3 kmh WSW 19.0 mph30.6 kmh 29.76 in1007.8 mb 0.00 in0.0 mm 0.00 in0.0 mm 0.03 in0.8 mm
02:29 PM 43.2°F6.2°C 35.8°F2.1°C 75% 9.0 mph WSW14.5 kmh WSW 15.0 mph24.1 kmh 29.75 in1007.5 mb 0.00 in0.0 mm 0.00 in0.0 mm 0.03 in0.8 mm
02:34 PM 43.3°F6.3°C 36.3°F2.4°C 76% 4.0 mph W6.4 kmh W 6.0 mph9.7 kmh 29.76 in1007.8 mb 0.00 in0.0 mm 0.00 in0.0 mm 0.03 in0.8 mm
02:39 PM 43.2°F6.2°C 35.8°F2.1°C 75% 8.0 mph SW12.9 kmh SW 13.0 mph20.9 kmh 29.76 in1007.8 mb 0.00 in0.0 mm 0.00 in0.0 mm 0.03 in0.8 mm
02:44 PM 43.0°F6.1°C 35.6°F2.0°C 75% 13.0 mph W20.9 kmh W 18.0 mph29.0 kmh 29.75 in1007.5 mb 0.00 in0.0 mm 0.00 in0.0 mm 0.03 in0.8 mm
02:49 PM 42.6°F5.9°C 35.6°F2.0°C 76% 12.0 mph W19.3 kmh W 18.0 mph29.0 kmh 29.75 in1007.5 mb 0.00 in0.0 mm 0.00 in0.0 mm 0.03 in0.8 mm
02:54 PM 42.8°F6.0°C 36.1°F2.3°C 77% 9.0 mph W14.5 kmh W 13.0 mph20.9 kmh 29.75 in1007.5 mb 0.00 in0.0 mm 0.00 in0.0 mm 0.03 in0.8 mm
02:59 PM 42.6°F5.9°C 35.9°F2.2°C 77% 8.0 mph W12.9 kmh W 11.0 mph17.7 kmh 29.75 in1007.5 mb 0.00 in0.0 mm 0.00 in0.0 mm 0.03 in0.8 mm
03:04 PM 42.6°F5.9°C 35.6°F2.0°C 76% 7.0 mph WSW11.3 kmh WSW 10.0 mph16.1 kmh 29.75 in1007.5 mb 0.00 in0.0 mm 0.00 in0.0 mm 0.03 in0.8 mm
03:09 PM 42.4°F5.8°C 35.8°F2.1°C 77% 7.0 mph W11.3 kmh W 11.0 mph17.7 kmh 29.75 in1007.5 mb 0.00 in0.0 mm 0.00 in0.0 mm 0.03 in0.8 mm
03:14 PM 42.4°F5.8°C 35.8°F2.1°C 77% 7.0 mph SW11.3 kmh SW 11.0 mph17.7 kmh 29.75 in1007.5 mb 0.00 in0.0 mm 0.00 in0.0 mm 0.03 in0.8 mm
03:19 PM 42.3°F5.7°C 35.6°F2.0°C 77% 9.0 mph SW14.5 kmh SW 13.0 mph20.9 kmh 29.75 in1007.5 mb 0.00 in0.0 mm 0.00 in0.0 mm 0.03 in0.8 mm
03:24 PM 41.9°F5.5°C 35.2°F1.8°C 77% 7.0 mph SW11.3 kmh SW 14.0 mph22.5 kmh 29.75 in1007.5 mb 0.00 in0.0 mm 0.00 in0.0 mm 0.03 in0.8 mm
03:29 PM 42.1°F5.6°C 35.1°F1.7°C 76% 10.0 mph SW16.1 kmh SW 15.0 mph24.1 kmh 29.75 in1007.5 mb 0.00 in0.0 mm 0.00 in0.0 mm 0.03 in0.8 mm
03:34 PM 42.3°F5.7°C 35.3°F1.8°C 76% 8.0 mph WSW12.9 kmh WSW 12.0 mph19.3 kmh 29.75 in1007.5 mb 0.00 in0.0 mm 0.00 in0.0 mm 0.03 in0.8 mm
03:39 PM 42.3°F5.7°C 34.9°F1.6°C 75% 12.0 mph W19.3 kmh W 18.0 mph29.0 kmh 29.75 in1007.5 mb 0.00 in0.0 mm 0.00 in0.0 mm 0.03 in0.8 mm
03:44 PM 42.1°F5.6°C 34.4°F1.3°C 74% 10.0 mph W16.1 kmh W 16.0 mph25.7 kmh 29.75 in1007.5 mb 0.00 in0.0 mm 0.00 in0.0 mm 0.03 in0.8 mm
03:49 PM 42.1°F5.6°C 34.7°F1.5°C 75% 12.0 mph W19.3 kmh W 16.0 mph25.7 kmh 29.75 in1007.5 mb 0.00 in0.0 mm 0.00 in0.0 mm 0.03 in0.8 mm
03:54 PM 42.3°F5.7°C 35.3°F1.8°C 76% 10.0 mph W16.1 kmh W 15.0 mph24.1 kmh 29.75 in1007.5 mb 0.00 in0.0 mm 0.00 in0.0 mm 0.03 in0.8 mm
03:59 PM 42.3°F5.7°C 35.6°F2.0°C 77% 11.0 mph W17.7 kmh W 14.0 mph22.5 kmh 29.75 in1007.5 mb 0.00 in0.0 mm 0.00 in0.0 mm 0.03 in0.8 mm
04:04 PM 42.1°F5.6°C 35.4°F1.9°C 77% 8.0 mph WSW12.9 kmh WSW 12.0 mph19.3 kmh 29.75 in1007.5 mb 0.00 in0.0 mm 0.00 in0.0 mm 0.03 in0.8 mm
04:09 PM 41.9°F5.5°C 35.2°F1.8°C 77% 8.0 mph W12.9 kmh W 16.0 mph25.7 kmh 29.75 in1007.5 mb 0.00 in0.0 mm 0.00 in0.0 mm 0.03 in0.8 mm
04:14 PM 41.7°F5.4°C 34.7°F1.5°C 76% 6.0 mph SW9.7 kmh SW 11.0 mph17.7 kmh 29.75 in1007.5 mb 0.00 in0.0 mm 0.00 in0.0 mm 0.03 in0.8 mm
04:19 PM 41.5°F5.3°C 34.6°F1.4°C 76% 4.0 mph WSW6.4 kmh WSW 7.0 mph11.3 kmh 29.75 in1007.5 mb 0.00 in0.0 mm 0.00 in0.0 mm 0.03 in0.8 mm
04:24 PM 41.4°F5.2°C 34.1°F1.2°C 75% 9.0 mph SW14.5 kmh SW 17.0 mph27.4 kmh 29.75 in1007.5 mb 0.00 in0.0 mm 0.00 in0.0 mm 0.03 in0.8 mm
04:29 PM 41.4°F5.2°C 34.1°F1.2°C 75% 5.0 mph SW8.0 kmh SW 8.0 mph12.9 kmh 29.75 in1007.5 mb 0.00 in0.0 mm 0.00 in0.0 mm 0.03 in0.8 mm
04:34 PM 41.4°F5.2°C 34.4°F1.3°C 76% 7.0 mph S11.3 kmh S 11.0 mph17.7 kmh 29.75 in1007.5 mb 0.00 in0.0 mm 0.00 in0.0 mm 0.03 in0.8 mm
04:39 PM 41.2°F5.1°C 34.2°F1.2°C 76% 5.0 mph SW8.0 kmh SW 10.0 mph16.1 kmh 29.75 in1007.5 mb 0.00 in0.0 mm 0.00 in0.0 mm 0.03 in0.8 mm
04:44 PM 41.0°F5.0°C 34.4°F1.3°C 77% 5.0 mph SW8.0 kmh SW 8.0 mph12.9 kmh 29.75 in1007.5 mb 0.00 in0.0 mm 0.00 in0.0 mm 0.03 in0.8 mm
04:49 PM 40.8°F4.9°C 34.5°F1.4°C 78% 4.0 mph SW6.4 kmh SW 9.0 mph14.5 kmh 29.75 in1007.5 mb 0.00 in0.0 mm 0.00 in0.0 mm 0.03 in0.8 mm
04:54 PM 41.0°F5.0°C 35.0°F1.7°C 79% 8.0 mph WSW12.9 kmh WSW 11.0 mph17.7 kmh 29.75 in1007.5 mb 0.00 in0.0 mm 0.00 in0.0 mm 0.03 in0.8 mm
04:59 PM 41.2°F5.1°C 35.2°F1.8°C 79% 8.0 mph WSW12.9 kmh WSW 13.0 mph20.9 kmh 29.75 in1007.5 mb 0.00 in0.0 mm 0.00 in0.0 mm 0.03 in0.8 mm
05:04 PM 41.2°F5.1°C 34.5°F1.4°C 77% 9.0 mph WNW14.5 kmh WNW 15.0 mph24.1 kmh 29.75 in1007.5 mb 0.00 in0.0 mm 0.00 in0.0 mm 0.03 in0.8 mm
05:09 PM 41.0°F5.0°C 34.0°F1.1°C 76% 6.0 mph WSW9.7 kmh WSW 9.0 mph14.5 kmh 29.75 in1007.5 mb 0.00 in0.0 mm 0.00 in0.0 mm 0.03 in0.8 mm
05:14 PM 40.8°F4.9°C 33.9°F1.1°C 76% 5.0 mph WSW8.0 kmh WSW 11.0 mph17.7 kmh 29.75 in1007.5 mb 0.00 in0.0 mm 0.00 in0.0 mm 0.03 in0.8 mm
05:19 PM 40.8°F4.9°C 34.5°F1.4°C 78% 7.0 mph WSW11.3 kmh WSW 12.0 mph19.3 kmh 29.75 in1007.5 mb 0.00 in0.0 mm 0.00 in0.0 mm 0.03 in0.8 mm
05:24 PM 40.8°F4.9°C 34.8°F1.6°C 79% 5.0 mph WSW8.0 kmh WSW 10.0 mph16.1 kmh 29.75 in1007.5 mb 0.00 in0.0 mm 0.00 in0.0 mm 0.03 in0.8 mm
05:29 PM 40.8°F4.9°C 35.1°F1.7°C 80% 7.0 mph W11.3 kmh W 11.0 mph17.7 kmh 29.75 in1007.5 mb 0.00 in0.0 mm 0.00 in0.0 mm 0.03 in0.8 mm
05:34 PM 40.8°F4.9°C 35.5°F1.9°C 81% 7.0 mph WSW11.3 kmh WSW 10.0 mph16.1 kmh 29.75 in1007.5 mb 0.00 in0.0 mm 0.00 in0.0 mm 0.03 in0.8 mm
05:39 PM 40.8°F4.9°C 35.5°F1.9°C 81% 4.0 mph SW6.4 kmh SW 9.0 mph14.5 kmh 29.75 in1007.5 mb 0.00 in0.0 mm 0.00 in0.0 mm 0.03 in0.8 mm
05:44 PM 41.0°F5.0°C 35.9°F2.2°C 82% 10.0 mph WSW16.1 kmh WSW 13.0 mph20.9 kmh 29.75 in1007.5 mb 0.00 in0.0 mm 0.00 in0.0 mm 0.03 in0.8 mm
05:49 PM 41.2°F5.1°C 36.1°F2.3°C 82% 4.0 mph WSW6.4 kmh WSW 7.0 mph11.3 kmh 29.75 in1007.5 mb 0.00 in0.0 mm 0.00 in0.0 mm 0.03 in0.8 mm
05:54 PM 41.0°F5.0°C 35.9°F2.2°C 82% 5.0 mph SW8.0 kmh SW 12.0 mph19.3 kmh 29.75 in1007.5 mb 0.00 in0.0 mm 0.00 in0.0 mm 0.03 in0.8 mm
05:59 PM 41.0°F5.0°C 35.9°F2.2°C 82% 8.0 mph SW12.9 kmh SW 13.0 mph20.9 kmh 29.75 in1007.5 mb 0.00 in0.0 mm 0.00 in0.0 mm 0.03 in0.8 mm
06:04 PM 41.0°F5.0°C 35.6°F2.0°C 81% 6.0 mph SW9.7 kmh SW 11.0 mph17.7 kmh 29.75 in1007.5 mb 0.00 in0.0 mm 0.00 in0.0 mm 0.03 in0.8 mm
06:09 PM 41.0°F5.0°C 35.6°F2.0°C 81% 6.0 mph WSW9.7 kmh WSW 8.0 mph12.9 kmh 29.75 in1007.5 mb 0.00 in0.0 mm 0.00 in0.0 mm 0.03 in0.8 mm
06:14 PM 41.2°F5.1°C 35.8°F2.1°C 81% 5.0 mph WSW8.0 kmh WSW 9.0 mph14.5 kmh 29.75 in1007.5 mb 0.00 in0.0 mm 0.00 in0.0 mm 0.03 in0.8 mm
06:19 PM 41.2°F5.1°C 35.5°F1.9°C 80% 6.0 mph WSW9.7 kmh WSW 15.0 mph24.1 kmh 29.75 in1007.5 mb 0.00 in0.0 mm 0.00 in0.0 mm 0.03 in0.8 mm
06:24 PM 41.2°F5.1°C 35.2°F1.8°C 79% 8.0 mph WSW12.9 kmh WSW 13.0 mph20.9 kmh 29.75 in1007.5 mb 0.00 in0.0 mm 0.00 in0.0 mm 0.03 in0.8 mm
06:29 PM 41.4°F5.2°C 35.4°F1.9°C 79% 7.0 mph SW11.3 kmh SW 12.0 mph19.3 kmh 29.76 in1007.8 mb 0.00 in0.0 mm 0.00 in0.0 mm 0.03 in0.8 mm
06:34 PM 41.2°F5.1°C 35.2°F1.8°C 79% 6.0 mph SW9.7 kmh SW 11.0 mph17.7 kmh 29.76 in1007.8 mb 0.00 in0.0 mm 0.00 in0.0 mm 0.03 in0.8 mm
06:39 PM 41.0°F5.0°C 35.0°F1.7°C 79% 8.0 mph WSW12.9 kmh WSW 13.0 mph20.9 kmh 29.76 in1007.8 mb 0.00 in0.0 mm 0.00 in0.0 mm 0.03 in0.8 mm
06:44 PM 41.0°F5.0°C 35.0°F1.7°C 79% 9.0 mph W14.5 kmh W 13.0 mph20.9 kmh 29.76 in1007.8 mb 0.00 in0.0 mm 0.00 in0.0 mm 0.03 in0.8 mm
06:49 PM 41.4°F5.2°C 35.4°F1.9°C 79% 9.0 mph WSW14.5 kmh WSW 12.0 mph19.3 kmh 29.76 in1007.8 mb 0.00 in0.0 mm 0.00 in0.0 mm 0.03 in0.8 mm
06:54 PM 41.5°F5.3°C 35.5°F1.9°C 79% 11.0 mph W17.7 kmh W 15.0 mph24.1 kmh 29.76 in1007.8 mb 0.00 in0.0 mm 0.00 in0.0 mm 0.03 in0.8 mm
06:59 PM 41.5°F5.3°C 35.5°F1.9°C 79% 11.0 mph W17.7 kmh W 15.0 mph24.1 kmh 29.76 in1007.8 mb 0.00 in0.0 mm 0.00 in0.0 mm 0.03 in0.8 mm
07:04 PM 41.5°F5.3°C 35.2°F1.8°C 78% 8.0 mph W12.9 kmh W 11.0 mph17.7 kmh 29.76 in1007.8 mb 0.00 in0.0 mm 0.00 in0.0 mm 0.03 in0.8 mm
07:09 PM 41.7°F5.4°C 35.4°F1.9°C 78% 9.0 mph W14.5 kmh W 14.0 mph22.5 kmh 29.76 in1007.8 mb 0.00 in0.0 mm 0.00 in0.0 mm 0.03 in0.8 mm
07:14 PM 41.7°F5.4°C 35.7°F2.1°C 79% 11.0 mph W17.7 kmh W 15.0 mph24.1 kmh 29.76 in1007.8 mb 0.00 in0.0 mm 0.00 in0.0 mm 0.03 in0.8 mm
07:19 PM 41.7°F5.4°C 35.1°F1.7°C 77% 11.0 mph W17.7 kmh W 15.0 mph24.1 kmh 29.76 in1007.8 mb 0.00 in0.0 mm 0.00 in0.0 mm 0.03 in0.8 mm
07:24 PM 41.7°F5.4°C 34.7°F1.5°C 76% 12.0 mph W19.3 kmh W 15.0 mph24.1 kmh 29.75 in1007.5 mb 0.00 in0.0 mm 0.00 in0.0 mm 0.03 in0.8 mm
07:29 PM 41.7°F5.4°C 34.7°F1.5°C 76% 12.0 mph W19.3 kmh W 20.0 mph32.2 kmh 29.75 in1007.5 mb 0.00 in0.0 mm 0.00 in0.0 mm 0.03 in0.8 mm
07:34 PM 41.7°F5.4°C 34.7°F1.5°C 76% 11.0 mph W17.7 kmh W 15.0 mph24.1 kmh 29.76 in1007.8 mb 0.00 in0.0 mm 0.00 in0.0 mm 0.03 in0.8 mm
07:39 PM 41.7°F5.4°C 34.4°F1.3°C 75% 12.0 mph W19.3 kmh W 15.0 mph24.1 kmh 29.75 in1007.5 mb 0.00 in0.0 mm 0.00 in0.0 mm 0.03 in0.8 mm
07:44 PM 41.5°F5.3°C 34.9°F1.6°C 77% 8.0 mph W12.9 kmh W 13.0 mph20.9 kmh 29.75 in1007.5 mb 0.00 in0.0 mm 0.00 in0.0 mm 0.03 in0.8 mm
07:49 PM 41.7°F5.4°C 35.4°F1.9°C 78% 10.0 mph W16.1 kmh W 16.0 mph25.7 kmh 29.75 in1007.5 mb 0.00 in0.0 mm 0.00 in0.0 mm 0.03 in0.8 mm
07:54 PM 41.9°F5.5°C 35.2°F1.8°C 77% 15.0 mph W24.1 kmh W 28.0 mph45.1 kmh 29.75 in1007.5 mb 0.00 in0.0 mm 0.00 in0.0 mm 0.03 in0.8 mm
07:59 PM 40.8°F4.9°C 33.9°F1.1°C 76% 14.0 mph WSW22.5 kmh WSW 29.0 mph46.7 kmh 29.76 in1007.8 mb 0.00 in0.0 mm 0.00 in0.0 mm 0.03 in0.8 mm
08:04 PM 40.3°F4.6°C 33.7°F0.9°C 77% 3.0 mph W4.8 kmh W 9.0 mph14.5 kmh 29.75 in1007.5 mb 0.00 in0.0 mm 0.00 in0.0 mm 0.03 in0.8 mm
08:09 PM 40.3°F4.6°C 34.0°F1.1°C 78% 7.0 mph W11.3 kmh W 13.0 mph20.9 kmh 29.75 in1007.5 mb 0.00 in0.0 mm 0.00 in0.0 mm 0.03 in0.8 mm
08:14 PM 40.6°F4.8°C 34.7°F1.5°C 79% 5.0 mph W8.0 kmh W 9.0 mph14.5 kmh 29.75 in1007.5 mb 0.00 in0.0 mm 0.00 in0.0 mm 0.03 in0.8 mm
08:19 PM 41.2°F5.1°C 35.5°F1.9°C 80% 8.0 mph W12.9 kmh W 12.0 mph19.3 kmh 29.75 in1007.5 mb 0.00 in0.0 mm 0.00 in0.0 mm 0.03 in0.8 mm
08:24 PM 41.4°F5.2°C 35.4°F1.9°C 79% 9.0 mph W14.5 kmh W 13.0 mph20.9 kmh 29.75 in1007.5 mb 0.00 in0.0 mm 0.00 in0.0 mm 0.03 in0.8 mm
08:29 PM 41.4°F5.2°C 35.0°F1.7°C 78% 14.0 mph W22.5 kmh W 20.0 mph32.2 kmh 29.75 in1007.5 mb 0.00 in0.0 mm 0.00 in0.0 mm 0.03 in0.8 mm
08:34 PM 41.5°F5.3°C 35.2°F1.8°C 78% 10.0 mph W16.1 kmh W 15.0 mph24.1 kmh 29.75 in1007.5 mb 0.00 in0.0 mm 0.00 in0.0 mm 0.03 in0.8 mm
08:39 PM 41.5°F5.3°C 34.9°F1.6°C 77% 12.0 mph W19.3 kmh W 19.0 mph30.6 kmh 29.75 in1007.5 mb 0.00 in0.0 mm 0.00 in0.0 mm 0.03 in0.8 mm
08:44 PM 41.5°F5.3°C 33.9°F1.1°C 74% 7.0 mph W11.3 kmh W 13.0 mph20.9 kmh 29.75 in1007.5 mb 0.00 in0.0 mm 0.00 in0.0 mm 0.03 in0.8 mm
08:49 PM 41.5°F5.3°C 34.2°F1.2°C 75% 9.0 mph W14.5 kmh W 12.0 mph19.3 kmh 29.75 in1007.5 mb 0.00 in0.0 mm 0.00 in0.0 mm 0.03 in0.8 mm
08:54 PM 41.5°F5.3°C 34.9°F1.6°C 77% 10.0 mph W16.1 kmh W 13.0 mph20.9 kmh 29.75 in1007.5 mb 0.00 in0.0 mm 0.00 in0.0 mm 0.03 in0.8 mm
08:59 PM 41.5°F5.3°C 34.9°F1.6°C 77% 6.0 mph W9.7 kmh W 9.0 mph14.5 kmh 29.75 in1007.5 mb 0.00 in0.0 mm 0.00 in0.0 mm 0.03 in0.8 mm
09:04 PM 41.5°F5.3°C 34.6°F1.4°C 76% 11.0 mph W17.7 kmh W 14.0 mph22.5 kmh 29.75 in1007.5 mb 0.00 in0.0 mm 0.00 in0.0 mm 0.03 in0.8 mm
09:09 PM 41.4°F5.2°C 34.4°F1.3°C 76% 8.0 mph WSW12.9 kmh WSW 10.0 mph16.1 kmh 29.75 in1007.5 mb 0.00 in0.0 mm 0.00 in0.0 mm 0.03 in0.8 mm
09:14 PM 41.4°F5.2°C 34.7°F1.5°C 77% 10.0 mph W16.1 kmh W 13.0 mph20.9 kmh 29.75 in1007.5 mb 0.00 in0.0 mm 0.00 in0.0 mm 0.03 in0.8 mm
09:19 PM 41.5°F5.3°C 34.6°F1.4°C 76% 9.0 mph W14.5 kmh W 14.0 mph22.5 kmh 29.75 in1007.5 mb 0.00 in0.0 mm 0.00 in0.0 mm 0.03 in0.8 mm
09:24 PM 41.4°F5.2°C 34.7°F1.5°C 77% 7.0 mph W11.3 kmh W 12.0 mph19.3 kmh 29.75 in1007.5 mb 0.00 in0.0 mm 0.00 in0.0 mm 0.03 in0.8 mm
09:29 PM 41.5°F5.3°C 34.9°F1.6°C 77% 9.0 mph W14.5 kmh W 12.0 mph19.3 kmh 29.75 in1007.5 mb 0.00 in0.0 mm 0.00 in0.0 mm 0.03 in0.8 mm
09:34 PM 41.5°F5.3°C 34.9°F1.6°C 77% 8.0 mph WSW12.9 kmh WSW 11.0 mph17.7 kmh 29.75 in1007.5 mb 0.00 in0.0 mm 0.00 in0.0 mm 0.03 in0.8 mm
09:39 PM 41.7°F5.4°C 34.7°F1.5°C 76% 7.0 mph W11.3 kmh W 10.0 mph16.1 kmh 29.75 in1007.5 mb 0.00 in0.0 mm 0.00 in0.0 mm 0.03 in0.8 mm
09:44 PM 41.7°F5.4°C 34.7°F1.5°C 76% 8.0 mph WSW12.9 kmh WSW 14.0 mph22.5 kmh 29.75 in1007.5 mb 0.00 in0.0 mm 0.00 in0.0 mm 0.03 in0.8 mm
09:49 PM 41.7°F5.4°C 35.1°F1.7°C 77% 10.0 mph WSW16.1 kmh WSW 15.0 mph24.1 kmh 29.75 in1007.5 mb 0.00 in0.0 mm 0.00 in0.0 mm 0.03 in0.8 mm
09:54 PM 41.4°F5.2°C 35.0°F1.7°C 78% 5.0 mph SW8.0 kmh SW 9.0 mph14.5 kmh 29.75 in1007.5 mb 0.00 in0.0 mm 0.00 in0.0 mm 0.03 in0.8 mm
09:59 PM 41.2°F5.1°C 34.5°F1.4°C 77% 6.0 mph WSW9.7 kmh WSW 9.0 mph14.5 kmh 29.75 in1007.5 mb 0.00 in0.0 mm 0.00 in0.0 mm 0.03 in0.8 mm
10:04 PM 41.0°F5.0°C 34.0°F1.1°C 76% 7.0 mph W11.3 kmh W 10.0 mph16.1 kmh 29.75 in1007.5 mb 0.00 in0.0 mm 0.00 in0.0 mm 0.03 in0.8 mm
10:09 PM 41.0°F5.0°C 34.0°F1.1°C 76% 6.0 mph W9.7 kmh W 9.0 mph14.5 kmh 29.75 in1007.5 mb 0.00 in0.0 mm 0.00 in0.0 mm 0.03 in0.8 mm
10:14 PM 41.0°F5.0°C 34.0°F1.1°C 76% 4.0 mph W6.4 kmh W 7.0 mph11.3 kmh 29.75 in1007.5 mb 0.00 in0.0 mm 0.00 in0.0 mm 0.03 in0.8 mm
10:19 PM 40.8°F4.9°C 34.2°F1.2°C 77% 3.0 mph SSW4.8 kmh SSW 4.0 mph6.4 kmh 29.75 in1007.5 mb 0.00 in0.0 mm 0.00 in0.0 mm 0.03 in0.8 mm
10:24 PM 40.8°F4.9°C 34.5°F1.4°C 78% 1.0 mph SSW1.6 kmh SSW 3.0 mph4.8 kmh 29.75 in1007.5 mb 0.00 in0.0 mm 0.00 in0.0 mm 0.03 in0.8 mm
10:29 PM 40.8°F4.9°C 34.5°F1.4°C 78% 5.0 mph SW8.0 kmh SW 7.0 mph11.3 kmh 29.75 in1007.5 mb 0.00 in0.0 mm 0.00 in0.0 mm 0.03 in0.8 mm
10:34 PM 40.8°F4.9°C 34.5°F1.4°C 78% 4.0 mph SW6.4 kmh SW 6.0 mph9.7 kmh 29.75 in1007.5 mb 0.00 in0.0 mm 0.00 in0.0 mm 0.03 in0.8 mm
10:39 PM 41.2°F5.1°C 34.9°F1.6°C 78% 2.0 mph WSW3.2 kmh WSW 4.0 mph6.4 kmh 29.75 in1007.5 mb 0.00 in0.0 mm 0.00 in0.0 mm 0.03 in0.8 mm
10:44 PM 41.2°F5.1°C 35.2°F1.8°C 79% 4.0 mph SSW6.4 kmh SSW 7.0 mph11.3 kmh 29.75 in1007.5 mb 0.00 in0.0 mm 0.00 in0.0 mm 0.03 in0.8 mm
10:49 PM 41.4°F5.2°C 35.4°F1.9°C 79% 5.0 mph W8.0 kmh W 8.0 mph12.9 kmh 29.75 in1007.5 mb 0.00 in0.0 mm 0.00 in0.0 mm 0.03 in0.8 mm
10:54 PM 41.5°F5.3°C 35.5°F1.9°C 79% 4.0 mph SW6.4 kmh SW 5.0 mph8.0 kmh 29.75 in1007.5 mb 0.00 in0.0 mm 0.00 in0.0 mm 0.03 in0.8 mm
10:59 PM 41.5°F5.3°C 35.8°F2.1°C 80% 6.0 mph SSW9.7 kmh SSW 11.0 mph17.7 kmh 29.75 in1007.5 mb 0.00 in0.0 mm 0.00 in0.0 mm 0.03 in0.8 mm
11:04 PM 41.7°F5.4°C 36.0°F2.2°C 80% 6.0 mph WSW9.7 kmh WSW 12.0 mph19.3 kmh 29.75 in1007.5 mb 0.00 in0.0 mm 0.00 in0.0 mm 0.03 in0.8 mm
11:09 PM 41.5°F5.3°C 36.2°F2.3°C 81% 4.0 mph SW6.4 kmh SW 8.0 mph12.9 kmh 29.75 in1007.5 mb 0.00 in0.0 mm 0.00 in0.0 mm 0.03 in0.8 mm
11:14 PM 41.4°F5.2°C 36.3°F2.4°C 82% 6.0 mph WSW9.7 kmh WSW 13.0 mph20.9 kmh 29.75 in1007.5 mb 0.00 in0.0 mm 0.00 in0.0 mm 0.03 in0.8 mm
11:19 PM 41.4°F5.2°C 36.3°F2.4°C 82% 6.0 mph W9.7 kmh W 9.0 mph14.5 kmh 29.75 in1007.5 mb 0.00 in0.0 mm 0.00 in0.0 mm 0.03 in0.8 mm
11:24 PM 41.4°F5.2°C 36.3°F2.4°C 82% 6.0 mph W9.7 kmh W 12.0 mph19.3 kmh 29.75 in1007.5 mb 0.00 in0.0 mm 0.00 in0.0 mm 0.03 in0.8 mm
11:29 PM 41.7°F5.4°C 36.0°F2.2°C 80% 9.0 mph W14.5 kmh W 12.0 mph19.3 kmh 29.75 in1007.5 mb 0.00 in0.0 mm 0.00 in0.0 mm 0.03 in0.8 mm
11:34 PM 41.9°F5.5°C 35.9°F2.2°C 79% 12.0 mph W19.3 kmh W 16.0 mph25.7 kmh 29.75 in1007.5 mb 0.00 in0.0 mm 0.00 in0.0 mm 0.03 in0.8 mm
11:39 PM 41.9°F5.5°C 35.9°F2.2°C 79% 8.0 mph WSW12.9 kmh WSW 13.0 mph20.9 kmh 29.75 in1007.5 mb 0.00 in0.0 mm 0.00 in0.0 mm 0.03 in0.8 mm
11:44 PM 42.1°F5.6°C 35.7°F2.1°C 78% 12.0 mph W19.3 kmh W 17.0 mph27.4 kmh 29.75 in1007.5 mb 0.00 in0.0 mm 0.00 in0.0 mm 0.03 in0.8 mm
11:49 PM 41.9°F5.5°C 35.9°F2.2°C 79% 9.0 mph W14.5 kmh W 13.0 mph20.9 kmh 29.75 in1007.5 mb 0.00 in0.0 mm 0.00 in0.0 mm 0.03 in0.8 mm
11:54 PM 41.9°F5.5°C 35.9°F2.2°C 79% 10.0 mph W16.1 kmh W 14.0 mph22.5 kmh 29.75 in1007.5 mb 0.00 in0.0 mm 0.00 in0.0 mm 0.03 in0.8 mm
11:59 PM 41.7°F5.4°C 36.0°F2.2°C 80% 11.0 mph WSW17.7 kmh WSW 18.0 mph29.0 kmh 29.75 in1007.5 mb 0.00 in0.0 mm 0.00 in0.0 mm 0.03 in0.8 mm